sensor_id;sensor_type;location;lat;lon;timestamp;P1;durP1;ratioP1;P2;durP2;ratioP2
4106;SDS011;21906;50.812;7.132;2024-02-04T00:00:52;1.23;;;1.13;;
4106;SDS011;21906;50.812;7.132;2024-02-04T00:03:18;1.10;;;1.00;;
4106;SDS011;21906;50.812;7.132;2024-02-04T00:05:44;1.20;;;1.10;;
4106;SDS011;21906;50.812;7.132;2024-02-04T00:08:10;1.33;;;1.10;;
4106;SDS011;21906;50.812;7.132;2024-02-04T00:10:37;1.07;;;0.97;;
4106;SDS011;21906;50.812;7.132;2024-02-04T00:13:03;1.33;;;1.10;;
4106;SDS011;21906;50.812;7.132;2024-02-04T00:15:29;1.00;;;0.90;;
4106;SDS011;21906;50.812;7.132;2024-02-04T00:17:55;1.10;;;1.00;;
4106;SDS011;21906;50.812;7.132;2024-02-04T00:20:20;1.10;;;1.00;;
4106;SDS011;21906;50.812;7.132;2024-02-04T00:22:46;1.10;;;0.90;;
4106;SDS011;21906;50.812;7.132;2024-02-04T00:25:12;1.57;;;1.07;;
4106;SDS011;21906;50.812;7.132;2024-02-04T00:27:40;1.50;;;1.00;;
4106;SDS011;21906;50.812;7.132;2024-02-04T00:30:06;1.10;;;1.00;;
4106;SDS011;21906;50.812;7.132;2024-02-04T00:32:32;1.00;;;0.90;;
4106;SDS011;21906;50.812;7.132;2024-02-04T00:34:58;1.07;;;0.97;;
4106;SDS011;21906;50.812;7.132;2024-02-04T00:37:23;1.20;;;1.10;;
4106;SDS011;21906;50.812;7.132;2024-02-04T00:39:49;1.97;;;1.20;;
4106;SDS011;21906;50.812;7.132;2024-02-04T00:42:15;1.23;;;1.07;;
4106;SDS011;21906;50.812;7.132;2024-02-04T00:44:41;1.57;;;1.20;;
4106;SDS011;21906;50.812;7.132;2024-02-04T00:47:06;1.20;;;1.10;;
4106;SDS011;21906;50.812;7.132;2024-02-04T00:49:32;2.80;;;1.30;;
4106;SDS011;21906;50.812;7.132;2024-02-04T00:51:58;1.17;;;1.07;;
4106;SDS011;21906;50.812;7.132;2024-02-04T00:54:23;1.00;;;0.90;;
4106;SDS011;21906;50.812;7.132;2024-02-04T00:56:49;0.90;;;0.70;;
4106;SDS011;21906;50.812;7.132;2024-02-04T00:59:15;1.00;;;0.80;;
4106;SDS011;21906;50.812;7.132;2024-02-04T01:01:41;0.90;;;0.73;;
4106;SDS011;21906;50.812;7.132;2024-02-04T01:04:07;0.90;;;0.70;;
4106;SDS011;21906;50.812;7.132;2024-02-04T01:06:33;0.80;;;0.63;;
4106;SDS011;21906;50.812;7.132;2024-02-04T01:08:58;1.30;;;0.80;;
4106;SDS011;21906;50.812;7.132;2024-02-04T01:11:24;1.13;;;0.80;;
4106;SDS011;21906;50.812;7.132;2024-02-04T01:13:50;0.87;;;0.60;;
4106;SDS011;21906;50.812;7.132;2024-02-04T01:16:16;1.77;;;0.77;;
4106;SDS011;21906;50.812;7.132;2024-02-04T01:18:41;1.00;;;0.70;;
4106;SDS011;21906;50.812;7.132;2024-02-04T01:21:07;1.00;;;0.77;;
4106;SDS011;21906;50.812;7.132;2024-02-04T01:23:34;1.10;;;0.90;;
4106;SDS011;21906;50.812;7.132;2024-02-04T01:26:00;0.87;;;0.63;;
4106;SDS011;21906;50.812;7.132;2024-02-04T01:28:25;0.83;;;0.60;;
4106;SDS011;21906;50.812;7.132;2024-02-04T01:30:51;0.80;;;0.60;;
4106;SDS011;21906;50.812;7.132;2024-02-04T01:33:17;0.70;;;0.50;;
4106;SDS011;21906;50.812;7.132;2024-02-04T01:35:43;0.80;;;0.60;;
4106;SDS011;21906;50.812;7.132;2024-02-04T01:38:08;0.80;;;0.60;;
4106;SDS011;21906;50.812;7.132;2024-02-04T01:40:35;1.00;;;0.60;;
4106;SDS011;21906;50.812;7.132;2024-02-04T01:43:01;0.70;;;0.60;;
4106;SDS011;21906;50.812;7.132;2024-02-04T01:45:26;0.80;;;0.60;;
4106;SDS011;21906;50.812;7.132;2024-02-04T01:47:53;0.83;;;0.73;;
4106;SDS011;21906;50.812;7.132;2024-02-04T01:50:19;0.70;;;0.60;;
4106;SDS011;21906;50.812;7.132;2024-02-04T01:52:45;1.40;;;0.67;;
4106;SDS011;21906;50.812;7.132;2024-02-04T01:55:11;0.80;;;0.70;;
4106;SDS011;21906;50.812;7.132;2024-02-04T01:57:37;1.63;;;0.60;;
4106;SDS011;21906;50.812;7.132;2024-02-04T02:00:04;0.70;;;0.50;;
4106;SDS011;21906;50.812;7.132;2024-02-04T02:02:32;1.30;;;0.60;;
4106;SDS011;21906;50.812;7.132;2024-02-04T02:04:59;0.80;;;0.50;;
4106;SDS011;21906;50.812;7.132;2024-02-04T02:07:24;1.00;;;0.60;;
4106;SDS011;21906;50.812;7.132;2024-02-04T02:09:52;0.80;;;0.57;;
4106;SDS011;21906;50.812;7.132;2024-02-04T02:12:33;2.90;;;0.60;;
4106;SDS011;21906;50.812;7.132;2024-02-04T02:15:21;1.30;;;0.53;;
4106;SDS011;21906;50.812;7.132;2024-02-04T02:20:23;0.70;;;0.50;;
4106;SDS011;21906;50.812;7.132;2024-02-04T02:23:10;0.70;;;0.50;;
4106;SDS011;21906;50.812;7.132;2024-02-04T02:25:44;2.30;;;0.50;;
4106;SDS011;21906;50.812;7.132;2024-02-04T02:28:11;1.77;;;0.70;;
4106;SDS011;21906;50.812;7.132;2024-02-04T02:30:37;0.70;;;0.57;;
4106;SDS011;21906;50.812;7.132;2024-02-04T02:33:03;0.60;;;0.40;;
4106;SDS011;21906;50.812;7.132;2024-02-04T02:35:31;0.70;;;0.40;;
4106;SDS011;21906;50.812;7.132;2024-02-04T02:43:04;1.50;;;0.77;;
4106;SDS011;21906;50.812;7.132;2024-02-04T02:45:31;0.60;;;0.40;;
4106;SDS011;21906;50.812;7.132;2024-02-04T02:47:57;1.60;;;0.60;;
4106;SDS011;21906;50.812;7.132;2024-02-04T02:50:24;0.83;;;0.50;;
4106;SDS011;21906;50.812;7.132;2024-02-04T02:52:49;0.90;;;0.50;;
4106;SDS011;21906;50.812;7.132;2024-02-04T02:55:15;3.10;;;0.50;;
4106;SDS011;21906;50.812;7.132;2024-02-04T02:57:41;0.80;;;0.50;;
4106;SDS011;21906;50.812;7.132;2024-02-04T03:00:07;0.70;;;0.50;;
4106;SDS011;21906;50.812;7.132;2024-02-04T03:02:34;1.17;;;0.50;;
4106;SDS011;21906;50.812;7.132;2024-02-04T03:05:00;0.70;;;0.50;;
4106;SDS011;21906;50.812;7.132;2024-02-04T03:07:25;0.80;;;0.50;;
4106;SDS011;21906;50.812;7.132;2024-02-04T03:09:52;0.70;;;0.60;;
4106;SDS011;21906;50.812;7.132;2024-02-04T03:12:19;0.80;;;0.50;;
4106;SDS011;21906;50.812;7.132;2024-02-04T03:14:45;1.00;;;0.53;;
4106;SDS011;21906;50.812;7.132;2024-02-04T03:17:10;0.70;;;0.50;;
4106;SDS011;21906;50.812;7.132;2024-02-04T03:19:37;0.70;;;0.57;;
4106;SDS011;21906;50.812;7.132;2024-02-04T03:22:03;0.80;;;0.60;;
4106;SDS011;21906;50.812;7.132;2024-02-04T03:24:28;0.70;;;0.50;;
4106;SDS011;21906;50.812;7.132;2024-02-04T03:26:55;1.27;;;0.60;;
4106;SDS011;21906;50.812;7.132;2024-02-04T03:29:21;1.00;;;0.83;;
4106;SDS011;21906;50.812;7.132;2024-02-04T03:31:47;0.80;;;0.70;;
4106;SDS011;21906;50.812;7.132;2024-02-04T03:34:13;1.00;;;0.60;;
4106;SDS011;21906;50.812;7.132;2024-02-04T03:36:39;0.80;;;0.67;;
4106;SDS011;21906;50.812;7.132;2024-02-04T03:39:04;1.73;;;0.90;;
4106;SDS011;21906;50.812;7.132;2024-02-04T03:41:30;1.00;;;0.90;;
4106;SDS011;21906;50.812;7.132;2024-02-04T03:43:55;0.77;;;0.60;;
4106;SDS011;21906;50.812;7.132;2024-02-04T03:46:21;1.00;;;0.90;;
4106;SDS011;21906;50.812;7.132;2024-02-04T03:48:47;1.50;;;1.00;;
4106;SDS011;21906;50.812;7.132;2024-02-04T03:51:16;1.10;;;1.00;;
4106;SDS011;21906;50.812;7.132;2024-02-04T03:53:43;1.20;;;1.10;;
4106;SDS011;21906;50.812;7.132;2024-02-04T03:56:09;1.30;;;1.20;;
4106;SDS011;21906;50.812;7.132;2024-02-04T03:58:35;2.07;;;0.90;;
4106;SDS011;21906;50.812;7.132;2024-02-04T04:01:01;1.30;;;1.20;;
4106;SDS011;21906;50.812;7.132;2024-02-04T04:03:26;1.27;;;1.17;;
4106;SDS011;21906;50.812;7.132;2024-02-04T04:05:55;1.30;;;1.20;;
4106;SDS011;21906;50.812;7.132;2024-02-04T04:08:21;1.73;;;1.63;;
4106;SDS011;21906;50.812;7.132;2024-02-04T04:10:46;1.53;;;1.43;;
4106;SDS011;21906;50.812;7.132;2024-02-04T04:13:12;2.10;;;1.90;;
4106;SDS011;21906;50.812;7.132;2024-02-04T04:15:38;2.37;;;1.70;;
4106;SDS011;21906;50.812;7.132;2024-02-04T04:18:04;2.30;;;2.20;;
4106;SDS011;21906;50.812;7.132;2024-02-04T04:20:30;2.20;;;2.00;;
4106;SDS011;21906;50.812;7.132;2024-02-04T04:22:56;1.70;;;1.60;;
4106;SDS011;21906;50.812;7.132;2024-02-04T04:25:21;1.97;;;1.87;;
4106;SDS011;21906;50.812;7.132;2024-02-04T04:27:47;2.10;;;2.00;;
4106;SDS011;21906;50.812;7.132;2024-02-04T04:30:12;2.20;;;2.10;;
4106;SDS011;21906;50.812;7.132;2024-02-04T04:32:38;2.00;;;1.90;;
4106;SDS011;21906;50.812;7.132;2024-02-04T04:35:04;2.23;;;2.03;;
4106;SDS011;21906;50.812;7.132;2024-02-04T04:37:29;2.27;;;2.17;;
4106;SDS011;21906;50.812;7.132;2024-02-04T04:39:55;2.37;;;2.17;;
4106;SDS011;21906;50.812;7.132;2024-02-04T04:42:21;2.23;;;2.13;;
4106;SDS011;21906;50.812;7.132;2024-02-04T04:44:46;2.70;;;2.20;;
4106;SDS011;21906;50.812;7.132;2024-02-04T04:47:12;2.50;;;2.30;;
4106;SDS011;21906;50.812;7.132;2024-02-04T04:49:39;2.97;;;2.67;;
4106;SDS011;21906;50.812;7.132;2024-02-04T04:52:05;2.70;;;2.50;;
4106;SDS011;21906;50.812;7.132;2024-02-04T04:54:31;2.37;;;2.27;;
4106;SDS011;21906;50.812;7.132;2024-02-04T04:56:56;2.23;;;2.03;;
4106;SDS011;21906;50.812;7.132;2024-02-04T04:59:22;2.70;;;2.50;;
4106;SDS011;21906;50.812;7.132;2024-02-04T05:01:48;2.77;;;2.57;;
4106;SDS011;21906;50.812;7.132;2024-02-04T05:04:14;2.27;;;2.10;;
4106;SDS011;21906;50.812;7.132;2024-02-04T05:06:41;2.80;;;2.60;;
4106;SDS011;21906;50.812;7.132;2024-02-04T05:09:07;2.70;;;2.50;;
4106;SDS011;21906;50.812;7.132;2024-02-04T05:11:33;3.93;;;2.60;;
4106;SDS011;21906;50.812;7.132;2024-02-04T05:13:59;3.10;;;2.83;;
4106;SDS011;21906;50.812;7.132;2024-02-04T05:16:25;3.20;;;3.00;;
4106;SDS011;21906;50.812;7.132;2024-02-04T05:18:50;2.97;;;2.77;;
4106;SDS011;21906;50.812;7.132;2024-02-04T05:21:16;3.37;;;3.17;;
4106;SDS011;21906;50.812;7.132;2024-02-04T05:23:42;2.97;;;2.77;;
4106;SDS011;21906;50.812;7.132;2024-02-04T05:26:07;2.80;;;2.60;;
4106;SDS011;21906;50.812;7.132;2024-02-04T05:28:33;3.13;;;2.87;;
4106;SDS011;21906;50.812;7.132;2024-02-04T05:30:58;3.40;;;3.20;;
4106;SDS011;21906;50.812;7.132;2024-02-04T05:33:26;2.73;;;2.53;;
4106;SDS011;21906;50.812;7.132;2024-02-04T05:35:52;3.10;;;2.80;;
4106;SDS011;21906;50.812;7.132;2024-02-04T05:38:17;2.70;;;2.50;;
4106;SDS011;21906;50.812;7.132;2024-02-04T05:40:43;2.57;;;2.37;;
4106;SDS011;21906;50.812;7.132;2024-02-04T05:43:09;2.37;;;2.17;;
4106;SDS011;21906;50.812;7.132;2024-02-04T05:45:36;3.20;;;2.10;;
4106;SDS011;21906;50.812;7.132;2024-02-04T05:48:05;2.60;;;2.40;;
4106;SDS011;21906;50.812;7.132;2024-02-04T05:50:32;2.60;;;2.40;;
4106;SDS011;21906;50.812;7.132;2024-02-04T05:52:58;2.70;;;2.50;;
4106;SDS011;21906;50.812;7.132;2024-02-04T05:55:23;2.77;;;2.57;;
4106;SDS011;21906;50.812;7.132;2024-02-04T05:57:49;2.90;;;2.70;;
4106;SDS011;21906;50.812;7.132;2024-02-04T06:00:14;3.00;;;2.80;;
4106;SDS011;21906;50.812;7.132;2024-02-04T06:02:40;3.10;;;2.90;;
4106;SDS011;21906;50.812;7.132;2024-02-04T06:05:08;3.10;;;2.80;;
4106;SDS011;21906;50.812;7.132;2024-02-04T06:07:34;2.87;;;2.67;;
4106;SDS011;21906;50.812;7.132;2024-02-04T06:10:00;2.67;;;2.47;;
4106;SDS011;21906;50.812;7.132;2024-02-04T06:12:28;3.03;;;2.83;;
4106;SDS011;21906;50.812;7.132;2024-02-04T06:14:54;3.50;;;3.20;;
4106;SDS011;21906;50.812;7.132;2024-02-04T06:17:20;3.57;;;3.27;;
4106;SDS011;21906;50.812;7.132;2024-02-04T06:19:46;2.90;;;2.70;;
4106;SDS011;21906;50.812;7.132;2024-02-04T06:22:11;6.03;;;4.83;;
4106;SDS011;21906;50.812;7.132;2024-02-04T06:24:37;4.20;;;3.17;;
4106;SDS011;21906;50.812;7.132;2024-02-04T06:27:05;3.40;;;3.10;;
4106;SDS011;21906;50.812;7.132;2024-02-04T06:29:35;3.27;;;2.97;;
4106;SDS011;21906;50.812;7.132;2024-02-04T06:32:02;2.97;;;2.77;;
4106;SDS011;21906;50.812;7.132;2024-02-04T06:34:28;2.90;;;2.70;;
4106;SDS011;21906;50.812;7.132;2024-02-04T06:36:54;2.90;;;2.70;;
4106;SDS011;21906;50.812;7.132;2024-02-04T06:39:20;3.40;;;3.13;;
4106;SDS011;21906;50.812;7.132;2024-02-04T06:41:45;3.00;;;2.80;;
4106;SDS011;21906;50.812;7.132;2024-02-04T06:44:11;3.30;;;3.10;;
4106;SDS011;21906;50.812;7.132;2024-02-04T06:46:37;3.90;;;3.60;;
4106;SDS011;21906;50.812;7.132;2024-02-04T06:49:02;3.60;;;2.90;;
4106;SDS011;21906;50.812;7.132;2024-02-04T06:51:28;3.20;;;2.90;;
4106;SDS011;21906;50.812;7.132;2024-02-04T06:53:54;3.60;;;3.30;;
4106;SDS011;21906;50.812;7.132;2024-02-04T06:56:19;3.10;;;2.90;;
4106;SDS011;21906;50.812;7.132;2024-02-04T06:58:45;3.20;;;2.90;;
4106;SDS011;21906;50.812;7.132;2024-02-04T07:01:11;3.33;;;2.67;;
4106;SDS011;21906;50.812;7.132;2024-02-04T07:03:36;3.60;;;2.53;;
4106;SDS011;21906;50.812;7.132;2024-02-04T07:06:02;2.70;;;1.80;;
4106;SDS011;21906;50.812;7.132;2024-02-04T07:08:28;1.70;;;1.60;;
4106;SDS011;21906;50.812;7.132;2024-02-04T07:10:54;1.57;;;1.40;;
4106;SDS011;21906;50.812;7.132;2024-02-04T07:13:20;1.70;;;1.60;;
4106;SDS011;21906;50.812;7.132;2024-02-04T07:15:46;1.67;;;1.27;;
4106;SDS011;21906;50.812;7.132;2024-02-04T07:18:11;1.10;;;1.00;;
4106;SDS011;21906;50.812;7.132;2024-02-04T07:20:37;4.13;;;0.90;;
4106;SDS011;21906;50.812;7.132;2024-02-04T07:23:03;1.10;;;0.90;;
4106;SDS011;21906;50.812;7.132;2024-02-04T07:25:29;0.97;;;0.87;;
4106;SDS011;21906;50.812;7.132;2024-02-04T07:27:55;1.10;;;0.90;;
4106;SDS011;21906;50.812;7.132;2024-02-04T07:30:22;1.20;;;0.90;;
4106;SDS011;21906;50.812;7.132;2024-02-04T07:32:48;1.27;;;0.90;;
4106;SDS011;21906;50.812;7.132;2024-02-04T07:35:13;2.10;;;1.10;;
4106;SDS011;21906;50.812;7.132;2024-02-04T07:37:39;1.70;;;0.80;;
4106;SDS011;21906;50.812;7.132;2024-02-04T07:40:05;0.90;;;0.70;;
4106;SDS011;21906;50.812;7.132;2024-02-04T07:42:31;0.93;;;0.83;;
4106;SDS011;21906;50.812;7.132;2024-02-04T07:44:57;1.10;;;0.80;;
4106;SDS011;21906;50.812;7.132;2024-02-04T07:47:23;0.80;;;0.70;;
4106;SDS011;21906;50.812;7.132;2024-02-04T07:49:49;0.93;;;0.60;;
4106;SDS011;21906;50.812;7.132;2024-02-04T07:52:15;1.83;;;0.90;;
4106;SDS011;21906;50.812;7.132;2024-02-04T07:54:41;0.80;;;0.70;;
4106;SDS011;21906;50.812;7.132;2024-02-04T07:57:08;0.80;;;0.60;;
4106;SDS011;21906;50.812;7.132;2024-02-04T07:59:34;0.80;;;0.60;;
4106;SDS011;21906;50.812;7.132;2024-02-04T08:02:00;1.07;;;0.80;;
4106;SDS011;21906;50.812;7.132;2024-02-04T08:04:26;0.80;;;0.60;;
4106;SDS011;21906;50.812;7.132;2024-02-04T08:06:53;1.20;;;0.70;;
4106;SDS011;21906;50.812;7.132;2024-02-04T08:09:19;0.70;;;0.50;;
4106;SDS011;21906;50.812;7.132;2024-02-04T08:11:45;0.87;;;0.73;;
4106;SDS011;21906;50.812;7.132;2024-02-04T08:14:11;0.90;;;0.70;;
4106;SDS011;21906;50.812;7.132;2024-02-04T08:16:39;1.73;;;0.70;;
4106;SDS011;21906;50.812;7.132;2024-02-04T08:19:05;0.77;;;0.60;;
4106;SDS011;21906;50.812;7.132;2024-02-04T08:21:31;0.80;;;0.60;;
4106;SDS011;21906;50.812;7.132;2024-02-04T08:23:57;0.90;;;0.60;;
4106;SDS011;21906;50.812;7.132;2024-02-04T08:26:23;0.80;;;0.60;;
4106;SDS011;21906;50.812;7.132;2024-02-04T08:28:50;0.93;;;0.70;;
4106;SDS011;21906;50.812;7.132;2024-02-04T08:31:15;0.90;;;0.70;;
4106;SDS011;21906;50.812;7.132;2024-02-04T08:33:41;2.00;;;0.70;;
4106;SDS011;21906;50.812;7.132;2024-02-04T08:36:07;1.73;;;0.60;;
4106;SDS011;21906;50.812;7.132;2024-02-04T08:38:35;2.60;;;0.70;;
4106;SDS011;21906;50.812;7.132;2024-02-04T08:41:02;0.80;;;0.60;;
4106;SDS011;21906;50.812;7.132;2024-02-04T08:43:28;0.80;;;0.70;;
4106;SDS011;21906;50.812;7.132;2024-02-04T08:45:54;0.80;;;0.60;;
4106;SDS011;21906;50.812;7.132;2024-02-04T08:48:20;1.63;;;0.70;;
4106;SDS011;21906;50.812;7.132;2024-02-04T08:50:46;1.20;;;0.90;;
4106;SDS011;21906;50.812;7.132;2024-02-04T08:53:12;1.00;;;0.80;;
4106;SDS011;21906;50.812;7.132;2024-02-04T08:55:38;1.37;;;0.77;;
4106;SDS011;21906;50.812;7.132;2024-02-04T08:58:04;0.97;;;0.70;;
4106;SDS011;21906;50.812;7.132;2024-02-04T09:00:30;1.20;;;0.80;;
4106;SDS011;21906;50.812;7.132;2024-02-04T09:02:56;3.67;;;0.90;;
4106;SDS011;21906;50.812;7.132;2024-02-04T09:05:22;1.10;;;0.97;;
4106;SDS011;21906;50.812;7.132;2024-02-04T09:07:47;1.20;;;0.90;;
4106;SDS011;21906;50.812;7.132;2024-02-04T09:10:13;0.90;;;0.80;;
4106;SDS011;21906;50.812;7.132;2024-02-04T09:12:39;1.00;;;0.90;;
4106;SDS011;21906;50.812;7.132;2024-02-04T09:15:05;0.90;;;0.80;;
4106;SDS011;21906;50.812;7.132;2024-02-04T09:17:31;1.00;;;0.80;;
4106;SDS011;21906;50.812;7.132;2024-02-04T09:19:58;2.30;;;1.00;;
4106;SDS011;21906;50.812;7.132;2024-02-04T09:22:25;1.10;;;1.00;;
4106;SDS011;21906;50.812;7.132;2024-02-04T09:24:50;0.80;;;0.70;;
4106;SDS011;21906;50.812;7.132;2024-02-04T09:27:16;1.27;;;0.77;;
4106;SDS011;21906;50.812;7.132;2024-02-04T09:29:42;1.00;;;0.87;;
4106;SDS011;21906;50.812;7.132;2024-02-04T09:32:08;1.00;;;0.80;;
4106;SDS011;21906;50.812;7.132;2024-02-04T09:34:34;1.73;;;0.90;;
4106;SDS011;21906;50.812;7.132;2024-02-04T09:36:59;1.30;;;1.00;;
4106;SDS011;21906;50.812;7.132;2024-02-04T09:39:26;1.53;;;0.90;;
4106;SDS011;21906;50.812;7.132;2024-02-04T09:41:53;1.00;;;0.80;;
4106;SDS011;21906;50.812;7.132;2024-02-04T09:44:20;0.93;;;0.83;;
4106;SDS011;21906;50.812;7.132;2024-02-04T09:46:48;1.00;;;0.60;;
4106;SDS011;21906;50.812;7.132;2024-02-04T09:49:13;0.90;;;0.60;;
4106;SDS011;21906;50.812;7.132;2024-02-04T09:51:40;1.73;;;0.77;;
4106;SDS011;21906;50.812;7.132;2024-02-04T09:54:07;1.10;;;1.00;;
4106;SDS011;21906;50.812;7.132;2024-02-04T09:56:35;0.80;;;0.60;;
4106;SDS011;21906;50.812;7.132;2024-02-04T09:59:03;0.93;;;0.83;;
4106;SDS011;21906;50.812;7.132;2024-02-04T10:01:29;1.00;;;0.80;;
4106;SDS011;21906;50.812;7.132;2024-02-04T10:04:01;1.60;;;0.90;;
4106;SDS011;21906;50.812;7.132;2024-02-04T10:06:27;0.90;;;0.80;;
4106;SDS011;21906;50.812;7.132;2024-02-04T10:08:53;1.03;;;0.90;;
4106;SDS011;21906;50.812;7.132;2024-02-04T10:11:19;0.97;;;0.70;;
4106;SDS011;21906;50.812;7.132;2024-02-04T10:13:45;0.80;;;0.70;;
4106;SDS011;21906;50.812;7.132;2024-02-04T10:16:12;0.80;;;0.73;;
4106;SDS011;21906;50.812;7.132;2024-02-04T10:18:43;0.70;;;0.60;;
4106;SDS011;21906;50.812;7.132;2024-02-04T10:23:43;0.80;;;0.70;;
4106;SDS011;21906;50.812;7.132;2024-02-04T10:26:09;1.67;;;0.60;;
4106;SDS011;21906;50.812;7.132;2024-02-04T10:28:36;0.80;;;0.60;;
4106;SDS011;21906;50.812;7.132;2024-02-04T10:31:02;0.90;;;0.80;;
4106;SDS011;21906;50.812;7.132;2024-02-04T10:33:31;1.67;;;0.70;;
4106;SDS011;21906;50.812;7.132;2024-02-04T10:35:57;0.80;;;0.73;;
4106;SDS011;21906;50.812;7.132;2024-02-04T10:38:23;1.00;;;0.80;;
4106;SDS011;21906;50.812;7.132;2024-02-04T10:40:54;1.00;;;0.77;;
4106;SDS011;21906;50.812;7.132;2024-02-04T10:43:20;0.80;;;0.70;;
4106;SDS011;21906;50.812;7.132;2024-02-04T10:45:47;0.97;;;0.87;;
4106;SDS011;21906;50.812;7.132;2024-02-04T10:48:19;1.20;;;0.80;;
4106;SDS011;21906;50.812;7.132;2024-02-04T10:50:48;0.80;;;0.70;;
4106;SDS011;21906;50.812;7.132;2024-02-04T10:53:16;0.90;;;0.73;;
4106;SDS011;21906;50.812;7.132;2024-02-04T10:55:46;1.07;;;0.77;;
4106;SDS011;21906;50.812;7.132;2024-02-04T10:58:14;0.90;;;0.77;;
4106;SDS011;21906;50.812;7.132;2024-02-04T11:00:42;0.87;;;0.73;;
4106;SDS011;21906;50.812;7.132;2024-02-04T11:03:08;0.83;;;0.67;;
4106;SDS011;21906;50.812;7.132;2024-02-04T11:05:35;1.43;;;0.60;;
4106;SDS011;21906;50.812;7.132;2024-02-04T11:08:01;1.03;;;0.70;;
4106;SDS011;21906;50.812;7.132;2024-02-04T11:10:29;1.00;;;0.60;;
4106;SDS011;21906;50.812;7.132;2024-02-04T11:12:57;0.70;;;0.50;;
4106;SDS011;21906;50.812;7.132;2024-02-04T11:15:24;0.90;;;0.80;;
4106;SDS011;21906;50.812;7.132;2024-02-04T11:20:40;0.90;;;0.80;;
4106;SDS011;21906;50.812;7.132;2024-02-04T11:23:33;0.83;;;0.60;;
4106;SDS011;21906;50.812;7.132;2024-02-04T11:26:07;0.70;;;0.60;;
4106;SDS011;21906;50.812;7.132;2024-02-04T11:28:34;1.43;;;0.60;;
4106;SDS011;21906;50.812;7.132;2024-02-04T11:31:01;0.87;;;0.60;;
4106;SDS011;21906;50.812;7.132;2024-02-04T11:33:27;0.80;;;0.60;;
4106;SDS011;21906;50.812;7.132;2024-02-04T11:38:35;1.00;;;0.60;;
4106;SDS011;21906;50.812;7.132;2024-02-04T11:41:04;0.70;;;0.60;;
4106;SDS011;21906;50.812;7.132;2024-02-04T11:43:34;0.80;;;0.60;;
4106;SDS011;21906;50.812;7.132;2024-02-04T11:46:04;0.70;;;0.60;;
4106;SDS011;21906;50.812;7.132;2024-02-04T11:48:30;1.30;;;0.70;;
4106;SDS011;21906;50.812;7.132;2024-02-04T11:50:58;0.80;;;0.63;;
4106;SDS011;21906;50.812;7.132;2024-02-04T11:53:27;0.80;;;0.60;;
4106;SDS011;21906;50.812;7.132;2024-02-04T11:55:57;0.80;;;0.67;;
4106;SDS011;21906;50.812;7.132;2024-02-04T11:58:25;0.90;;;0.80;;
4106;SDS011;21906;50.812;7.132;2024-02-04T12:00:56;0.90;;;0.80;;
4106;SDS011;21906;50.812;7.132;2024-02-04T12:03:28;1.20;;;1.10;;
4106;SDS011;21906;50.812;7.132;2024-02-04T12:05:55;0.87;;;0.83;;
4106;SDS011;21906;50.812;7.132;2024-02-04T12:08:22;1.10;;;1.00;;
4106;SDS011;21906;50.812;7.132;2024-02-04T12:10:49;2.53;;;1.00;;
4106;SDS011;21906;50.812;7.132;2024-02-04T12:13:15;3.20;;;1.10;;
4106;SDS011;21906;50.812;7.132;2024-02-04T12:15:41;1.20;;;1.10;;
4106;SDS011;21906;50.812;7.132;2024-02-04T12:18:08;1.30;;;1.00;;
4106;SDS011;21906;50.812;7.132;2024-02-04T12:20:35;1.10;;;0.90;;
4106;SDS011;21906;50.812;7.132;2024-02-04T12:23:02;1.03;;;0.93;;
4106;SDS011;21906;50.812;7.132;2024-02-04T12:25:32;1.37;;;1.10;;
4106;SDS011;21906;50.812;7.132;2024-02-04T12:27:58;1.00;;;0.90;;
4106;SDS011;21906;50.812;7.132;2024-02-04T12:30:28;1.10;;;1.00;;
4106;SDS011;21906;50.812;7.132;2024-02-04T12:32:58;1.20;;;1.00;;
4106;SDS011;21906;50.812;7.132;2024-02-04T12:35:27;1.57;;;0.80;;
4106;SDS011;21906;50.812;7.132;2024-02-04T12:37:54;1.00;;;0.90;;
4106;SDS011;21906;50.812;7.132;2024-02-04T12:42:55;0.90;;;0.80;;
4106;SDS011;21906;50.812;7.132;2024-02-04T12:45:26;0.80;;;0.80;;
4106;SDS011;21906;50.812;7.132;2024-02-04T12:47:53;0.80;;;0.80;;
4106;SDS011;21906;50.812;7.132;2024-02-04T12:50:23;1.40;;;0.70;;
4106;SDS011;21906;50.812;7.132;2024-02-04T12:53:06;0.80;;;0.80;;
4106;SDS011;21906;50.812;7.132;2024-02-04T12:55:36;0.93;;;0.80;;
4106;SDS011;21906;50.812;7.132;2024-02-04T12:58:09;0.80;;;0.63;;
4106;SDS011;21906;50.812;7.132;2024-02-04T13:00:39;1.20;;;0.80;;
4106;SDS011;21906;50.812;7.132;2024-02-04T13:03:06;0.80;;;0.70;;
4106;SDS011;21906;50.812;7.132;2024-02-04T13:05:33;0.97;;;0.87;;
4106;SDS011;21906;50.812;7.132;2024-02-04T13:08:00;1.00;;;0.90;;
4106;SDS011;21906;50.812;7.132;2024-02-04T13:10:30;1.00;;;0.90;;
4106;SDS011;21906;50.812;7.132;2024-02-04T13:15:33;1.10;;;1.00;;
4106;SDS011;21906;50.812;7.132;2024-02-04T13:18:06;1.17;;;1.07;;
4106;SDS011;21906;50.812;7.132;2024-02-04T13:20:32;0.90;;;0.90;;
4106;SDS011;21906;50.812;7.132;2024-02-04T13:22:58;1.20;;;1.10;;
4106;SDS011;21906;50.812;7.132;2024-02-04T13:25:25;1.20;;;1.10;;
4106;SDS011;21906;50.812;7.132;2024-02-04T13:27:51;1.10;;;1.00;;
4106;SDS011;21906;50.812;7.132;2024-02-04T13:30:17;1.30;;;1.20;;
4106;SDS011;21906;50.812;7.132;2024-02-04T13:32:44;1.60;;;1.30;;
4106;SDS011;21906;50.812;7.132;2024-02-04T13:35:10;1.40;;;1.30;;
4106;SDS011;21906;50.812;7.132;2024-02-04T13:37:40;1.63;;;1.53;;
4106;SDS011;21906;50.812;7.132;2024-02-04T13:40:07;1.93;;;1.50;;
4106;SDS011;21906;50.812;7.132;2024-02-04T13:42:34;2.23;;;1.30;;
4106;SDS011;21906;50.812;7.132;2024-02-04T13:45:01;1.93;;;1.20;;
4106;SDS011;21906;50.812;7.132;2024-02-04T13:47:28;1.40;;;1.03;;
4106;SDS011;21906;50.812;7.132;2024-02-04T13:49:54;1.60;;;1.30;;
4106;SDS011;21906;50.812;7.132;2024-02-04T13:52:21;1.40;;;1.30;;
4106;SDS011;21906;50.812;7.132;2024-02-04T13:54:47;1.27;;;1.17;;
4106;SDS011;21906;50.812;7.132;2024-02-04T13:57:13;1.23;;;1.13;;
4106;SDS011;21906;50.812;7.132;2024-02-04T13:59:39;1.30;;;1.20;;
4106;SDS011;21906;50.812;7.132;2024-02-04T14:02:05;1.20;;;1.10;;
4106;SDS011;21906;50.812;7.132;2024-02-04T14:04:33;1.00;;;0.90;;
4106;SDS011;21906;50.812;7.132;2024-02-04T14:06:59;1.33;;;1.20;;
4106;SDS011;21906;50.812;7.132;2024-02-04T14:09:26;1.33;;;1.23;;
4106;SDS011;21906;50.812;7.132;2024-02-04T14:11:52;1.30;;;1.20;;
4106;SDS011;21906;50.812;7.132;2024-02-04T14:14:20;1.30;;;1.20;;
4106;SDS011;21906;50.812;7.132;2024-02-04T14:16:46;1.80;;;1.20;;
4106;SDS011;21906;50.812;7.132;2024-02-04T14:19:12;1.20;;;1.10;;
4106;SDS011;21906;50.812;7.132;2024-02-04T14:21:39;1.40;;;1.30;;
4106;SDS011;21906;50.812;7.132;2024-02-04T14:24:06;1.87;;;1.43;;
4106;SDS011;21906;50.812;7.132;2024-02-04T14:26:32;1.20;;;1.10;;
4106;SDS011;21906;50.812;7.132;2024-02-04T14:29:00;1.20;;;1.10;;
4106;SDS011;21906;50.812;7.132;2024-02-04T14:31:26;1.20;;;1.10;;
4106;SDS011;21906;50.812;7.132;2024-02-04T14:33:52;1.20;;;1.10;;
4106;SDS011;21906;50.812;7.132;2024-02-04T14:36:18;1.40;;;1.30;;
4106;SDS011;21906;50.812;7.132;2024-02-04T14:38:44;1.50;;;1.20;;
4106;SDS011;21906;50.812;7.132;2024-02-04T14:41:10;1.30;;;1.20;;
4106;SDS011;21906;50.812;7.132;2024-02-04T14:43:37;1.40;;;1.30;;
4106;SDS011;21906;50.812;7.132;2024-02-04T14:46:03;1.80;;;1.70;;
4106;SDS011;21906;50.812;7.132;2024-02-04T14:48:30;1.43;;;1.33;;
4106;SDS011;21906;50.812;7.132;2024-02-04T14:50:55;1.60;;;1.50;;
4106;SDS011;21906;50.812;7.132;2024-02-04T14:53:24;1.93;;;1.70;;
4106;SDS011;21906;50.812;7.132;2024-02-04T14:55:50;1.83;;;1.73;;
4106;SDS011;21906;50.812;7.132;2024-02-04T14:58:17;1.67;;;1.57;;
4106;SDS011;21906;50.812;7.132;2024-02-04T15:00:44;2.50;;;1.60;;
4106;SDS011;21906;50.812;7.132;2024-02-04T15:03:09;1.83;;;1.73;;
4106;SDS011;21906;50.812;7.132;2024-02-04T15:05:35;1.80;;;1.70;;
4106;SDS011;21906;50.812;7.132;2024-02-04T15:08:01;2.17;;;1.80;;
4106;SDS011;21906;50.812;7.132;2024-02-04T15:10:27;1.87;;;1.77;;
4106;SDS011;21906;50.812;7.132;2024-02-04T15:12:53;1.80;;;1.60;;
4106;SDS011;21906;50.812;7.132;2024-02-04T15:15:19;2.00;;;1.90;;
4106;SDS011;21906;50.812;7.132;2024-02-04T15:17:45;2.90;;;2.70;;